createdAt,value
2023-12-10T00:01:51.695Z,1.83
2023-12-10T00:04:18.523Z,1.50
2023-12-10T00:06:45.330Z,1.42
2023-12-10T00:09:13.062Z,1.20
2023-12-10T00:11:39.834Z,1.45
2023-12-10T00:14:07.172Z,1.10
2023-12-10T00:16:33.989Z,0.60
2023-12-10T00:19:00.882Z,1.13
2023-12-10T00:21:27.915Z,1.30
2023-12-10T00:23:54.735Z,0.90
2023-12-10T00:26:21.495Z,0.65
2023-12-10T00:28:48.246Z,0.80
2023-12-10T00:31:15.079Z,0.80
2023-12-10T00:33:41.944Z,0.80
2023-12-10T00:36:09.742Z,0.70
2023-12-10T00:38:36.809Z,0.60
2023-12-10T00:41:03.777Z,0.63
2023-12-10T00:43:30.497Z,0.77
2023-12-10T00:45:58.932Z,0.90
2023-12-10T00:48:25.946Z,0.90
2023-12-10T00:50:52.736Z,0.80
2023-12-10T00:53:19.554Z,0.75
2023-12-10T00:55:46.520Z,0.80
2023-12-10T00:58:15.115Z,0.90
2023-12-10T01:00:42.502Z,0.80
2023-12-10T01:03:09.627Z,1.00
2023-12-10T01:05:36.541Z,0.90
2023-12-10T01:08:04.457Z,0.85
2023-12-10T01:10:31.569Z,0.70
2023-12-10T01:12:58.659Z,1.13
2023-12-10T01:15:31.405Z,0.80
2023-12-10T01:18:04.763Z,0.75
2023-12-10T01:20:32.940Z,0.60
2023-12-10T01:23:00.605Z,0.70
2023-12-10T01:25:27.638Z,0.80
2023-12-10T01:27:55.142Z,0.80
2023-12-10T01:30:24.799Z,0.85
2023-12-10T01:32:53.336Z,0.90
2023-12-10T01:35:20.422Z,0.90
2023-12-10T01:37:47.280Z,0.75
2023-12-10T01:40:14.396Z,0.60
2023-12-10T01:42:47.979Z,1.10
2023-12-10T01:45:15.358Z,0.80
2023-12-10T01:47:47.815Z,0.82
2023-12-10T01:50:16.746Z,0.90
2023-12-10T01:52:45.777Z,1.00
2023-12-10T01:55:13.559Z,0.93
2023-12-10T01:57:40.719Z,0.80
2023-12-10T02:00:08.719Z,0.85
2023-12-10T02:02:37.219Z,0.77
2023-12-10T02:05:09.053Z,0.90
2023-12-10T02:07:36.444Z,0.95
2023-12-10T02:10:07.633Z,0.85
2023-12-10T02:12:36.137Z,0.85
2023-12-10T02:15:35.768Z,0.90
2023-12-10T02:18:02.651Z,0.82
2023-12-10T02:20:29.429Z,1.00
2023-12-10T02:23:06.822Z,0.90
2023-12-10T02:25:35.473Z,1.20
2023-12-10T02:28:04.083Z,1.00
2023-12-10T02:30:31.724Z,0.95
2023-12-10T02:32:59.088Z,1.27
2023-12-10T02:35:27.462Z,1.63
2023-12-10T02:37:54.486Z,1.17
2023-12-10T02:40:21.656Z,1.25
2023-12-10T02:43:38.811Z,1.10
2023-12-10T02:46:42.528Z,1.30
2023-12-10T02:49:23.089Z,1.38
2023-12-10T02:52:12.720Z,1.35
2023-12-10T02:54:42.683Z,1.15
2023-12-10T02:57:09.874Z,1.45
2023-12-10T02:59:36.579Z,1.20
2023-12-10T03:02:03.406Z,1.23
2023-12-10T03:04:30.131Z,1.50
2023-12-10T03:06:56.865Z,1.10
2023-12-10T03:09:23.578Z,1.40
2023-12-10T03:11:50.360Z,1.40
2023-12-10T03:14:17.233Z,1.40
2023-12-10T03:16:43.982Z,1.35
2023-12-10T03:19:11.180Z,2.00
2023-12-10T03:21:38.099Z,1.40
2023-12-10T03:24:05.274Z,1.48
2023-12-10T03:26:32.048Z,1.90
2023-12-10T03:28:58.784Z,1.27
2023-12-10T03:31:25.515Z,1.65
2023-12-10T03:33:52.506Z,1.50
2023-12-10T03:36:19.737Z,1.67
2023-12-10T03:38:48.215Z,1.92
2023-12-10T03:41:15.124Z,1.85
2023-12-10T03:43:41.852Z,1.83
2023-12-10T03:46:08.539Z,2.05
2023-12-10T03:48:35.380Z,2.28
2023-12-10T03:51:02.303Z,2.33
2023-12-10T03:53:29.046Z,2.30
2023-12-10T03:55:55.761Z,2.33
2023-12-10T03:58:22.506Z,2.25
2023-12-10T04:00:49.388Z,2.90
2023-12-10T04:03:16.449Z,2.47
2023-12-10T04:05:43.248Z,2.13
2023-12-10T04:08:10.167Z,2.42
2023-12-10T04:10:36.938Z,2.00
2023-12-10T04:13:04.459Z,2.08
2023-12-10T04:15:31.227Z,2.20
2023-12-10T04:17:57.982Z,2.25
2023-12-10T04:20:24.752Z,2.20
2023-12-10T04:22:51.496Z,2.15
2023-12-10T04:25:18.223Z,2.47
2023-12-10T04:27:44.972Z,2.78
2023-12-10T04:30:12.494Z,2.60
2023-12-10T04:32:39.319Z,2.28
2023-12-10T04:35:06.212Z,2.20
2023-12-10T04:37:32.982Z,2.28
2023-12-10T04:39:59.774Z,2.20
2023-12-10T04:42:26.766Z,2.38
2023-12-10T04:44:53.770Z,1.88
2023-12-10T04:47:20.576Z,2.72
2023-12-10T04:49:47.478Z,2.65
2023-12-10T04:52:14.537Z,2.15
2023-12-10T04:54:41.829Z,2.38
2023-12-10T04:57:10.143Z,2.22
2023-12-10T04:59:37.191Z,1.80
2023-12-10T05:02:04.576Z,2.35
2023-12-10T05:04:31.424Z,2.25
2023-12-10T05:06:59.028Z,2.22
2023-12-10T05:09:26.637Z,2.80
2023-12-10T05:11:53.367Z,2.55
2023-12-10T05:14:20.094Z,3.22
2023-12-10T05:16:46.844Z,3.03
2023-12-10T05:19:14.055Z,2.67
2023-12-10T05:21:41.028Z,2.55
2023-12-10T05:24:07.893Z,3.00
2023-12-10T05:26:44.324Z,2.35
2023-12-10T05:29:11.453Z,2.20
2023-12-10T05:32:45.793Z,2.10
2023-12-10T05:35:14.741Z,2.03
2023-12-10T05:37:42.928Z,2.47
2023-12-10T05:40:10.357Z,1.98
2023-12-10T05:42:37.450Z,2.10
2023-12-10T05:45:13.305Z,2.03
2023-12-10T05:47:48.208Z,1.90
2023-12-10T05:50:19.679Z,1.90
2023-12-10T05:53:05.069Z,1.92
2023-12-10T05:55:32.447Z,2.53
2023-12-10T05:57:59.743Z,2.38
2023-12-10T06:00:26.721Z,2.15
2023-12-10T06:02:53.887Z,2.42
2023-12-10T06:05:21.111Z,2.50
2023-12-10T06:07:48.326Z,2.40
2023-12-10T06:10:15.219Z,2.78
2023-12-10T06:12:42.627Z,2.60
2023-12-10T06:15:09.787Z,3.00
2023-12-10T06:17:36.616Z,2.70
2023-12-10T06:20:05.949Z,2.20
2023-12-10T06:22:32.707Z,2.17
2023-12-10T06:25:00.111Z,2.30
2023-12-10T06:27:26.914Z,2.13
2023-12-10T06:29:53.683Z,2.55
2023-12-10T06:32:20.398Z,2.50
2023-12-10T06:34:47.235Z,3.17
2023-12-10T06:37:14.051Z,3.35
2023-12-10T06:39:40.807Z,3.13
2023-12-10T06:42:07.845Z,2.28
2023-12-10T06:44:36.924Z,2.45
2023-12-10T06:47:04.185Z,2.00
2023-12-10T06:49:31.011Z,1.73
2023-12-10T06:51:57.923Z,2.08
2023-12-10T06:54:24.716Z,1.88
2023-12-10T06:56:51.465Z,2.03
2023-12-10T06:59:18.178Z,2.90
2023-12-10T07:01:44.985Z,2.28
2023-12-10T07:04:11.929Z,2.20
2023-12-10T07:06:38.848Z,2.83
2023-12-10T07:09:08.038Z,3.28
2023-12-10T07:11:35.016Z,2.58
2023-12-10T07:14:01.764Z,2.25
2023-12-10T07:16:29.250Z,2.53
2023-12-10T07:18:56.221Z,3.47
2023-12-10T07:21:23.161Z,2.45
2023-12-10T07:23:49.951Z,2.33
2023-12-10T07:26:23.517Z,2.53
2023-12-10T07:28:50.975Z,2.67
2023-12-10T07:31:18.180Z,2.20
2023-12-10T07:33:45.310Z,2.40
2023-12-10T07:36:12.638Z,2.03
2023-12-10T07:38:40.001Z,2.45
2023-12-10T07:41:06.964Z,2.20
2023-12-10T07:43:33.750Z,2.35
2023-12-10T07:46:00.652Z,1.80
2023-12-10T07:48:29.350Z,3.35
2023-12-10T07:50:56.245Z,2.17
2023-12-10T07:53:23.512Z,2.42
2023-12-10T07:55:50.292Z,2.88
2023-12-10T07:58:17.064Z,2.70
2023-12-10T08:00:48.350Z,2.75
2023-12-10T08:03:15.735Z,2.40
2023-12-10T08:05:42.652Z,2.63
2023-12-10T08:08:09.530Z,3.13
2023-12-10T08:10:36.332Z,2.53
2023-12-10T08:13:03.702Z,2.30
2023-12-10T08:15:30.947Z,2.53
2023-12-10T08:17:57.821Z,2.80
2023-12-10T08:20:24.637Z,2.92
2023-12-10T08:22:51.384Z,2.53
2023-12-10T08:25:18.184Z,3.20
2023-12-10T08:27:45.129Z,2.60
2023-12-10T08:30:12.436Z,2.90
2023-12-10T08:32:39.857Z,1.85
2023-12-10T08:35:07.313Z,3.80
2023-12-10T08:37:34.168Z,2.10
2023-12-10T08:40:04.712Z,2.05
2023-12-10T08:42:32.097Z,2.13
2023-12-10T08:44:59.709Z,2.05
2023-12-10T08:47:26.537Z,2.30
2023-12-10T08:49:54.460Z,1.95
2023-12-10T08:52:22.304Z,2.88
2023-12-10T08:54:49.078Z,2.92
2023-12-10T08:57:16.124Z,2.42
2023-12-10T08:59:42.846Z,3.45
2023-12-10T09:02:09.604Z,2.78
2023-12-10T09:04:36.341Z,2.80
2023-12-10T09:07:03.208Z,5.63
2023-12-10T09:09:30.119Z,4.30
2023-12-10T09:11:56.927Z,3.78
2023-12-10T09:14:23.629Z,3.83
2023-12-10T09:16:50.429Z,3.63
2023-12-10T09:19:18.335Z,3.72
2023-12-10T09:21:46.428Z,4.38
2023-12-10T09:24:13.394Z,3.78
2023-12-10T09:26:40.624Z,3.55
2023-12-10T09:29:07.438Z,3.38
2023-12-10T09:31:34.485Z,3.13
2023-12-10T09:34:01.390Z,2.70
2023-12-10T09:36:28.225Z,2.45
2023-12-10T09:38:55.060Z,2.67
2023-12-10T09:41:21.833Z,2.05
2023-12-10T09:43:48.614Z,2.97
2023-12-10T09:46:15.893Z,1.73
2023-12-10T09:48:44.195Z,1.88
2023-12-10T09:51:11.000Z,2.30
2023-12-10T09:53:37.817Z,2.25
2023-12-10T09:56:04.966Z,2.00
2023-12-10T09:58:31.860Z,2.17
2023-12-10T10:00:58.673Z,1.65
2023-12-10T10:03:26.791Z,2.00
2023-12-10T10:06:00.868Z,2.17
2023-12-10T10:08:27.783Z,1.83
2023-12-10T10:10:54.554Z,1.90
2023-12-10T10:13:21.368Z,1.80
2023-12-10T10:15:48.225Z,2.05
2023-12-10T10:18:16.254Z,1.55
2023-12-10T10:20:43.593Z,2.38
2023-12-10T10:23:10.427Z,2.03
2023-12-10T10:25:37.249Z,1.58
2023-12-10T10:28:09.299Z,2.00
2023-12-10T10:30:36.216Z,2.38
2023-12-10T10:33:03.252Z,3.20
2023-12-10T10:35:30.067Z,2.30
2023-12-10T10:37:57.698Z,1.88
2023-12-10T10:40:24.739Z,2.13
2023-12-10T10:42:51.516Z,2.00
2023-12-10T10:45:18.302Z,2.17
2023-12-10T10:47:45.458Z,2.33
2023-12-10T10:50:22.065Z,1.60
2023-12-10T10:52:54.267Z,1.80
2023-12-10T10:55:21.626Z,2.08
2023-12-10T10:57:48.573Z,2.20
2023-12-10T11:00:24.740Z,1.88
2023-12-10T11:02:55.505Z,2.63
2023-12-10T11:05:34.773Z,2.50
2023-12-10T11:08:05.981Z,1.65
2023-12-10T11:10:34.100Z,1.80
2023-12-10T11:13:01.352Z,1.70
2023-12-10T11:15:31.973Z,1.67
2023-12-10T11:18:03.838Z,1.52
2023-12-10T11:20:39.228Z,2.15
2023-12-10T11:23:17.686Z,1.90
2023-12-10T11:25:46.105Z,1.65
2023-12-10T11:28:15.751Z,1.60
2023-12-10T11:30:43.731Z,1.73
2023-12-10T11:33:12.361Z,1.85
2023-12-10T11:35:39.571Z,1.60
2023-12-10T11:38:06.358Z,1.40
2023-12-10T11:40:34.044Z,1.73
2023-12-10T11:43:05.822Z,1.60
2023-12-10T11:45:33.701Z,1.27
2023-12-10T11:48:06.807Z,1.70
2023-12-10T11:50:35.153Z,1.60
2023-12-10T11:53:02.070Z,1.40
2023-12-10T11:55:30.699Z,1.85
2023-12-10T11:57:58.906Z,1.67
2023-12-10T12:00:35.937Z,1.60
2023-12-10T12:03:08.136Z,2.08
2023-12-10T12:05:34.989Z,1.67
2023-12-10T12:08:02.164Z,1.55
2023-12-10T12:10:38.404Z,3.00
2023-12-10T12:13:06.377Z,1.40
2023-12-10T12:15:35.060Z,1.42
2023-12-10T12:18:04.163Z,1.58
2023-12-10T12:20:32.124Z,1.73
2023-12-10T12:22:58.844Z,1.70
2023-12-10T12:25:25.678Z,1.90
2023-12-10T12:27:52.515Z,1.52
2023-12-10T12:30:19.780Z,1.70
2023-12-10T12:32:47.099Z,1.83
2023-12-10T12:35:13.952Z,1.60
2023-12-10T12:37:40.697Z,2.33
2023-12-10T12:40:08.032Z,2.13
2023-12-10T12:42:35.320Z,1.77
2023-12-10T12:45:02.438Z,2.75
2023-12-10T12:47:29.550Z,2.53
2023-12-10T12:49:56.748Z,1.50
2023-12-10T12:52:23.729Z,1.90
2023-12-10T12:54:50.524Z,1.58
2023-12-10T12:57:17.938Z,2.00
2023-12-10T12:59:47.915Z,1.90
2023-12-10T13:02:14.692Z,1.25
2023-12-10T13:04:51.773Z,1.40
2023-12-10T13:07:18.670Z,1.90
2023-12-10T13:09:45.532Z,2.10
2023-12-10T13:12:38.488Z,2.15
2023-12-10T13:15:05.778Z,1.63
2023-12-10T13:17:33.045Z,2.00
2023-12-10T13:20:00.103Z,1.83
2023-12-10T13:22:26.957Z,2.08
2023-12-10T13:24:54.329Z,1.85
2023-12-10T13:27:24.282Z,1.98
2023-12-10T13:29:51.416Z,1.70
2023-12-10T13:32:25.416Z,1.80
2023-12-10T13:34:52.435Z,2.00
2023-12-10T13:37:19.260Z,2.25
2023-12-10T13:39:46.043Z,1.90
2023-12-10T13:42:12.845Z,1.58
2023-12-10T13:44:39.667Z,1.80
2023-12-10T13:47:06.746Z,1.92
2023-12-10T13:49:34.163Z,1.90
2023-12-10T13:52:00.960Z,2.38
2023-12-10T13:54:27.825Z,1.83
2023-12-10T13:56:54.633Z,3.72
2023-12-10T13:59:21.398Z,2.65
2023-12-10T14:01:48.273Z,2.95
2023-12-10T14:04:15.231Z,3.92
2023-12-10T14:06:42.065Z,2.55
2023-12-10T14:09:10.561Z,2.92
2023-12-10T14:11:43.476Z,2.47
2023-12-10T14:14:13.341Z,1.90
2023-12-10T14:16:41.672Z,1.98
2023-12-10T14:19:08.647Z,2.60
2023-12-10T14:21:35.504Z,2.60
2023-12-10T14:24:02.295Z,2.25
2023-12-10T14:26:29.143Z,2.58
2023-12-10T14:28:55.912Z,2.30
2023-12-10T14:31:26.320Z,3.08
2023-12-10T14:33:54.140Z,2.75
2023-12-10T14:36:21.352Z,2.88
2023-12-10T14:38:48.117Z,2.78
2023-12-10T14:41:14.863Z,3.83
2023-12-10T14:43:41.652Z,2.60
2023-12-10T14:46:08.915Z,3.22
2023-12-10T14:48:35.988Z,2.63
2023-12-10T14:51:03.731Z,2.42
2023-12-10T14:53:30.577Z,2.33
2023-12-10T14:55:57.650Z,2.45
2023-12-10T14:58:24.446Z,2.47
2023-12-10T15:00:51.279Z,3.05
2023-12-10T15:03:20.152Z,2.60
2023-12-10T15:05:50.106Z,2.30
2023-12-10T15:08:20.392Z,2.47
2023-12-10T15:10:48.066Z,2.75
2023-12-10T15:13:16.298Z,2.08
2023-12-10T15:15:44.081Z,2.47
2023-12-10T15:18:11.842Z,2.17
2023-12-10T15:20:38.748Z,2.10
2023-12-10T15:23:06.385Z,2.28
2023-12-10T15:25:33.490Z,2.20
2023-12-10T15:28:01.411Z,2.55
2023-12-10T15:30:33.669Z,2.05
2023-12-10T15:33:03.337Z,2.85
2023-12-10T15:35:30.818Z,2.78
2023-12-10T15:37:57.779Z,2.28
2023-12-10T15:40:24.671Z,1.92
2023-12-10T15:42:51.535Z,2.50
2023-12-10T15:45:19.039Z,2.03
2023-12-10T15:47:46.102Z,1.70
2023-12-10T15:50:13.414Z,1.90
2023-12-10T15:52:41.393Z,2.00
2023-12-10T15:55:09.574Z,1.67
2023-12-10T15:57:38.592Z,1.70
2023-12-10T16:00:06.462Z,2.10
2023-12-10T16:02:33.609Z,2.10
2023-12-10T16:05:02.338Z,2.05
2023-12-10T16:07:36.904Z,2.05
2023-12-10T16:10:12.480Z,2.15
2023-12-10T16:12:39.405Z,1.90
2023-12-10T16:15:06.824Z,1.88
2023-12-10T16:17:33.765Z,2.17
2023-12-10T16:20:17.994Z,1.67
2023-12-10T16:22:48.157Z,1.58
2023-12-10T16:25:19.099Z,1.98
2023-12-10T16:27:47.570Z,2.22
2023-12-10T16:30:14.474Z,3.65
2023-12-10T16:32:41.222Z,2.80
2023-12-10T16:35:08.762Z,3.47
2023-12-10T16:37:35.921Z,2.70
2023-12-10T16:40:05.939Z,1.95
2023-12-10T16:42:32.885Z,2.28
2023-12-10T16:45:00.040Z,2.03
2023-12-10T16:47:26.856Z,2.22
2023-12-10T16:49:54.344Z,1.75
2023-12-10T16:52:21.115Z,2.28
2023-12-10T16:54:47.880Z,2.92
2023-12-10T16:57:14.614Z,7.57
2023-12-10T16:59:41.455Z,3.10
2023-12-10T17:02:08.733Z,2.80
2023-12-10T17:04:35.704Z,2.38
2023-12-10T17:07:02.972Z,2.67
2023-12-10T17:09:29.966Z,2.20
2023-12-10T17:11:57.465Z,1.92
2023-12-10T17:14:24.243Z,2.17
2023-12-10T17:16:51.402Z,2.10
2023-12-10T17:19:18.400Z,2.38
2023-12-10T17:21:48.337Z,3.10
2023-12-10T17:24:20.843Z,2.30
2023-12-10T17:26:47.653Z,3.10
2023-12-10T17:29:14.359Z,3.25
2023-12-10T17:31:41.275Z,2.80
2023-12-10T17:34:08.173Z,2.20
2023-12-10T17:36:34.993Z,2.17
2023-12-10T17:39:01.789Z,2.35
2023-12-10T17:41:28.582Z,2.72
2023-12-10T17:43:55.335Z,2.30
2023-12-10T17:46:22.155Z,2.05
2023-12-10T17:48:52.288Z,2.10
2023-12-10T17:51:19.411Z,2.08
2023-12-10T17:53:46.396Z,2.30
2023-12-10T17:56:14.973Z,1.98
2023-12-10T17:58:41.891Z,2.05
2023-12-10T18:01:08.882Z,1.92
2023-12-10T18:03:35.722Z,1.92
2023-12-10T18:06:02.580Z,2.25
2023-12-10T18:08:29.299Z,2.03
2023-12-10T18:10:56.080Z,1.80
2023-12-10T18:13:22.814Z,1.73
2023-12-10T18:15:49.551Z,1.60
2023-12-10T18:18:16.431Z,2.10
2023-12-10T18:20:43.624Z,2.47
2023-12-10T18:23:10.412Z,2.17
2023-12-10T18:25:37.508Z,1.65
2023-12-10T18:28:04.805Z,2.17
2023-12-10T18:30:32.303Z,1.92
2023-12-10T18:32:59.517Z,2.17
2023-12-10T18:35:26.572Z,2.08
2023-12-10T18:37:53.372Z,1.70
2023-12-10T18:40:20.224Z,2.22
2023-12-10T18:42:47.577Z,1.80
2023-12-10T18:45:14.779Z,2.60
2023-12-10T18:47:41.585Z,3.13
2023-12-10T18:50:09.814Z,2.10
2023-12-10T18:52:36.649Z,2.05
2023-12-10T18:55:03.563Z,1.70
2023-12-10T18:57:30.686Z,2.00
2023-12-10T18:59:57.674Z,3.08
2023-12-10T19:02:24.995Z,2.88
2023-12-10T19:04:51.926Z,3.17
2023-12-10T19:07:18.709Z,1.90
2023-12-10T19:09:48.895Z,2.45
2023-12-10T19:12:18.887Z,3.00
2023-12-10T19:14:46.907Z,2.30
2023-12-10T19:17:14.028Z,3.00
2023-12-10T19:19:41.181Z,2.50
2023-12-10T19:22:08.512Z,2.90
2023-12-10T19:24:35.411Z,3.30
2023-12-10T19:27:02.307Z,3.05
2023-12-10T19:29:29.938Z,2.65
2023-12-10T19:31:57.930Z,3.40
2023-12-10T19:34:25.363Z,3.00
2023-12-10T19:36:52.288Z,3.10
2023-12-10T19:39:19.710Z,2.75
2023-12-10T19:41:46.534Z,2.17
2023-12-10T19:44:13.358Z,2.38
2023-12-10T19:46:40.102Z,2.20
2023-12-10T19:49:07.295Z,2.28
2023-12-10T19:51:34.124Z,1.65
2023-12-10T19:54:00.967Z,2.00
2023-12-10T19:56:27.701Z,2.20
2023-12-10T19:58:54.492Z,2.75
2023-12-10T20:01:21.430Z,2.92
2023-12-10T20:03:51.412Z,1.90
2023-12-10T20:06:18.281Z,3.38
2023-12-10T20:08:45.008Z,2.00
2023-12-10T20:11:11.811Z,2.80
2023-12-10T20:13:39.296Z,2.72
2023-12-10T20:16:06.541Z,1.80
2023-12-10T20:18:33.437Z,3.67
2023-12-10T20:21:00.342Z,1.80
2023-12-10T20:23:27.136Z,1.98
2023-12-10T20:25:55.720Z,1.80
2023-12-10T20:28:23.556Z,1.73
2023-12-10T20:30:51.082Z,1.58
2023-12-10T20:33:18.221Z,1.80
2023-12-10T20:35:45.041Z,1.52
2023-12-10T20:38:12.071Z,1.55
2023-12-10T20:40:38.798Z,1.70
2023-12-10T20:43:05.912Z,1.30
2023-12-10T20:45:32.834Z,1.25
2023-12-10T20:47:59.953Z,1.27
2023-12-10T20:50:26.935Z,1.20
2023-12-10T20:52:54.627Z,1.30
2023-12-10T20:55:21.407Z,1.40
2023-12-10T20:57:49.014Z,1.90
2023-12-10T21:00:17.970Z,1.38
2023-12-10T21:02:48.066Z,1.70
2023-12-10T21:05:15.157Z,1.25
2023-12-10T21:07:42.193Z,1.20
2023-12-10T21:10:10.717Z,1.00
2023-12-10T21:12:37.722Z,0.88
2023-12-10T21:15:05.178Z,1.08
2023-12-10T21:17:33.591Z,0.95
2023-12-10T21:20:01.477Z,0.80
2023-12-10T21:22:28.337Z,0.98
2023-12-10T21:24:55.171Z,0.82
2023-12-10T21:27:21.959Z,0.90
2023-12-10T21:29:48.790Z,0.93
2023-12-10T21:32:15.556Z,0.60
2023-12-10T21:34:42.445Z,0.90
2023-12-10T21:37:09.389Z,1.13
2023-12-10T21:39:36.572Z,1.00
2023-12-10T21:42:03.747Z,1.02
2023-12-10T21:44:30.564Z,0.90
2023-12-10T21:46:57.277Z,0.93
2023-12-10T21:49:24.766Z,0.82
2023-12-10T21:51:51.668Z,1.20
2023-12-10T21:54:25.921Z,0.85
2023-12-10T21:56:56.375Z,1.08
2023-12-10T21:59:24.119Z,0.80
2023-12-10T22:01:51.094Z,1.13
2023-12-10T22:04:17.930Z,1.50
2023-12-10T22:06:44.859Z,1.05
2023-12-10T22:09:11.640Z,1.15
2023-12-10T22:11:38.475Z,1.40
2023-12-10T22:14:05.340Z,1.10
2023-12-10T22:16:32.110Z,0.80
2023-12-10T22:18:59.077Z,1.00
2023-12-10T22:21:25.947Z,1.20
2023-12-10T22:23:52.721Z,1.17
2023-12-10T22:26:19.659Z,1.42
2023-12-10T22:28:46.403Z,1.17
2023-12-10T22:31:13.583Z,1.00
2023-12-10T22:33:42.301Z,1.08
2023-12-10T22:36:10.976Z,1.33
2023-12-10T22:38:42.926Z,0.95
2023-12-10T22:41:09.955Z,1.25
2023-12-10T22:43:36.988Z,1.35
2023-12-10T22:46:04.152Z,1.02
2023-12-10T22:48:32.094Z,1.27
2023-12-10T22:50:58.991Z,1.35
2023-12-10T22:53:25.784Z,1.52
2023-12-10T22:55:52.649Z,0.85
2023-12-10T22:58:19.564Z,1.10
2023-12-10T23:00:46.705Z,1.40
2023-12-10T23:03:13.732Z,1.10
2023-12-10T23:05:40.591Z,1.15
2023-12-10T23:08:07.461Z,1.38
2023-12-10T23:10:34.214Z,1.20
2023-12-10T23:13:00.999Z,1.50
2023-12-10T23:15:30.717Z,1.20
2023-12-10T23:17:57.565Z,1.55
2023-12-10T23:20:24.818Z,1.20
2023-12-10T23:22:51.548Z,1.02
2023-12-10T23:25:18.403Z,1.30
2023-12-10T23:27:45.284Z,1.08
2023-12-10T23:30:12.712Z,1.10
2023-12-10T23:32:39.655Z,1.25
2023-12-10T23:35:06.662Z,1.05
2023-12-10T23:37:33.379Z,1.35
2023-12-10T23:40:00.385Z,1.52
2023-12-10T23:42:27.305Z,1.83
2023-12-10T23:44:54.091Z,1.30
2023-12-10T23:47:20.836Z,2.67
2023-12-10T23:49:47.635Z,2.25
2023-12-10T23:52:14.525Z,0.70
2023-12-10T23:54:41.500Z,1.27
2023-12-10T23:57:08.780Z,1.23
2023-12-10T23:59:35.863Z,1.40
